Time;durP1;ratioP1;P1;durP2;ratioP2;P2;SDS_P1;SDS_P2;PMS_P1;PMS_P2;Temp;Humidity;BMP_temperature;BMP_pressure;BME280_temperature;BME280_humidity;BME280_pressure;Samples;Min_cycle;Max_cycle;Signal;HPM_P1;HPM_P2
2024/04/06 00:00:56;;;;;;;3.97;1.58;;;;;;;16.76;100.00;96333.66;5022804;28;20236;-74
2024/04/06 00:03:22;;;;;;;3.33;1.70;;;;;;;16.81;100.00;96339.97;5026261;28;20245;-76
2024/04/06 00:05:48;;;;;;;1.70;1.60;;;;;;;16.80;100.00;96327.72;5028883;28;20537;-71
2024/04/06 00:08:14;;;;;;;2.28;1.50;;;;;;;16.83;100.00;96337.13;5026828;28;20202;-72
2024/04/06 00:10:40;;;;;;;3.05;1.63;;;;;;;16.83;100.00;96345.09;5029858;28;20699;-71
2024/04/06 00:13:06;;;;;;;1.60;1.50;;;;;;;16.68;100.00;96333.91;5028196;28;20213;-75
2024/04/06 00:15:34;;;;;;;2.10;1.58;;;;;;;16.75;100.00;96327.53;5029377;28;20221;-72
2024/04/06 00:17:59;;;;;;;2.30;1.40;;;;;;;16.33;100.00;96340.59;5028802;28;20604;-72
2024/04/06 00:20:28;;;;;;;3.55;1.83;;;;;;;16.58;100.00;96329.03;5026439;28;20225;-73
2024/04/06 00:22:54;;;;;;;2.78;1.60;;;;;;;16.63;100.00;96323.06;5028030;28;20477;-72
2024/04/06 00:25:20;;;;;;;2.85;1.70;;;;;;;16.64;100.00;96319.41;5031499;28;20356;-72
2024/04/06 00:27:46;;;;;;;3.17;1.60;;;;;;;16.65;100.00;96326.34;5032595;28;20464;-72
2024/04/06 00:30:12;;;;;;;1.98;1.58;;;;;;;16.63;100.00;96312.44;5029640;28;20225;-76
2024/04/06 00:32:39;;;;;;;2.60;1.48;;;;;;;16.66;100.00;96314.66;5025685;28;20205;-72
2024/04/06 00:35:06;;;;;;;2.55;1.60;;;;;;;16.45;100.00;96312.31;5025711;28;20209;-72
2024/04/06 00:37:32;;;;;;;2.40;1.40;;;;;;;16.38;100.00;96310.69;5027431;28;20229;-72
2024/04/06 00:39:58;;;;;;;2.28;1.60;;;;;;;16.34;100.00;96315.63;5023226;28;21116;-71
2024/04/06 00:42:23;;;;;;;1.50;1.27;;;;;;;16.27;100.00;96316.69;5030693;28;20205;-74
2024/04/06 00:44:50;;;;;;;2.78;1.67;;;;;;;16.19;100.00;96312.38;5029099;28;20220;-72
2024/04/06 00:47:16;;;;;;;2.70;1.40;;;;;;;16.09;100.00;96317.31;5021426;28;20201;-72
2024/04/06 00:49:44;;;;;;;1.85;1.48;;;;;;;16.21;100.00;96312.16;5020744;28;20239;-73
2024/04/06 00:52:09;;;;;;;3.63;1.60;;;;;;;16.00;100.00;96307.94;5022426;28;20227;-72
2024/04/06 00:54:36;;;;;;;1.60;1.40;;;;;;;15.99;100.00;96310.81;5023801;28;20679;-72
2024/04/06 00:57:02;;;;;;;2.38;1.33;;;;;;;15.80;100.00;96311.66;5025561;28;20206;-73
2024/04/06 00:59:29;;;;;;;2.97;1.73;;;;;;;15.76;100.00;96307.78;5027822;28;20236;-76
2024/04/06 01:01:54;;;;;;;2.33;1.20;;;;;;;15.69;100.00;96311.47;5021408;28;20209;-73
2024/04/06 01:04:21;;;;;;;5.05;2.40;;;;;;;15.46;100.00;96313.72;5024034;28;20201;-73
2024/04/06 01:06:47;;;;;;;3.00;1.50;;;;;;;15.43;100.00;96309.66;5022606;28;20207;-71
2024/04/06 01:09:14;;;;;;;2.25;1.27;;;;;;;15.20;100.00;96328.78;5029786;28;20326;-73
2024/04/06 01:11:40;;;;;;;1.90;1.30;;;;;;;15.14;100.00;96322.47;5023692;28;20548;-72
2024/04/06 01:14:06;;;;;;;2.63;1.52;;;;;;;15.21;100.00;96319.84;5027598;28;20208;-73
2024/04/06 01:16:32;;;;;;;2.28;1.60;;;;;;;15.11;100.00;96322.03;5022798;28;20588;-75
2024/04/06 01:18:58;;;;;;;2.78;1.48;;;;;;;15.08;100.00;96325.91;5024295;28;20229;-76
2024/04/06 01:21:26;;;;;;;5.88;1.63;;;;;;;14.97;100.00;96334.50;5024692;28;20224;-72
2024/04/06 01:23:54;;;;;;;2.65;1.42;;;;;;;14.92;100.00;96333.47;5027901;28;20741;-71
2024/04/06 01:26:22;;;;;;;2.30;1.48;;;;;;;14.93;100.00;96333.25;5025909;28;20209;-75
2024/04/06 01:28:48;;;;;;;2.63;1.48;;;;;;;14.65;100.00;96323.81;5025515;28;20260;-75
2024/04/06 01:31:14;;;;;;;1.92;1.17;;;;;;;14.62;100.00;96326.03;5023337;28;20231;-73
2024/04/06 01:33:41;;;;;;;1.83;1.30;;;;;;;14.63;100.00;96331.13;5023975;28;20201;-73
2024/04/06 01:36:07;;;;;;;1.63;1.05;;;;;;;14.63;100.00;96337.25;5027548;28;20201;-74
2024/04/06 01:38:34;;;;;;;6.38;1.80;;;;;;;14.53;100.00;96327.22;5027508;28;20228;-72
2024/04/06 01:40:59;;;;;;;2.92;1.73;;;;;;;14.55;100.00;96338.44;5029655;28;20221;-72
2024/04/06 01:43:27;;;;;;;1.73;1.57;;;;;;;14.55;100.00;96335.78;5028845;28;20217;-72
2024/04/06 01:45:53;;;;;;;2.90;1.50;;;;;;;14.41;100.00;96342.06;5032384;28;20552;-72
2024/04/06 01:48:19;;;;;;;3.00;1.50;;;;;;;14.26;100.00;96349.34;5032404;28;20204;-72
2024/04/06 01:50:45;;;;;;;1.92;1.40;;;;;;;14.32;100.00;96343.25;5036128;28;20223;-73
2024/04/06 01:53:11;;;;;;;5.88;1.30;;;;;;;14.33;100.00;96344.88;5033908;28;20205;-72
2024/04/06 01:55:37;;;;;;;1.77;1.38;;;;;;;14.30;100.00;96339.97;5029928;28;20214;-74
2024/04/06 01:58:04;;;;;;;2.05;1.60;;;;;;;14.30;100.00;96345.28;5034852;28;20228;-72
2024/04/06 02:00:31;;;;;;;3.13;1.75;;;;;;;14.33;100.00;96344.88;5028371;28;20247;-73
2024/04/06 02:02:57;;;;;;;1.83;1.53;;;;;;;14.17;100.00;96339.94;5034011;28;20228;-73
2024/04/06 02:05:23;;;;;;;2.77;1.40;;;;;;;14.09;100.00;96346.19;5029124;28;20357;-72
2024/04/06 02:07:49;;;;;;;2.83;1.60;;;;;;;14.03;100.00;96343.47;5032825;28;20199;-75
2024/04/06 02:10:15;;;;;;;5.00;1.63;;;;;;;14.00;100.00;96344.69;5030047;28;20222;-73
2024/04/06 02:12:41;;;;;;;1.85;1.38;;;;;;;14.02;100.00;96340.00;5034786;28;20228;-73
2024/04/06 02:15:07;;;;;;;5.80;1.50;;;;;;;13.95;100.00;96351.59;5026314;28;20495;-72
2024/04/06 02:17:37;;;;;;;1.65;1.33;;;;;;;14.05;100.00;96344.94;5027266;28;20225;-73
2024/04/06 02:20:03;;;;;;;2.17;1.43;;;;;;;13.88;100.00;96345.44;5030859;28;20535;-74
2024/04/06 02:22:30;;;;;;;3.67;1.77;;;;;;;13.81;100.00;96349.03;5032130;28;20198;-74
2024/04/06 02:24:56;;;;;;;2.73;1.50;;;;;;;13.71;100.00;96348.56;5029301;28;20363;-72
2024/04/06 02:27:22;;;;;;;2.20;1.33;;;;;;;13.67;100.00;96348.16;5028562;28;20212;-73
2024/04/06 02:29:49;;;;;;;2.03;1.40;;;;;;;13.58;100.00;96346.66;5028011;28;20236;-73
2024/04/06 02:32:14;;;;;;;2.23;1.67;;;;;;;13.42;100.00;96348.75;5030494;28;20299;-74
2024/04/06 02:34:42;;;;;;;3.37;1.30;;;;;;;13.52;100.00;96344.75;5035030;28;20236;-72
2024/04/06 02:37:08;;;;;;;3.20;1.80;;;;;;;13.36;100.00;96338.13;5027921;28;20206;-73
2024/04/06 02:39:34;;;;;;;1.83;1.30;;;;;;;13.38;100.00;96343.03;5028943;28;20503;-76
2024/04/06 02:42:00;;;;;;;2.27;1.63;;;;;;;13.38;100.00;96336.09;5028343;28;20205;-73
2024/04/06 02:44:53;;;;;;;5.43;1.80;;;;;;;13.59;100.00;96344.81;5025739;28;20695;-73
2024/04/06 02:47:19;;;;;;;1.90;1.30;;;;;;;13.25;100.00;96333.34;5029806;28;20657;-73
2024/04/06 02:49:46;;;;;;;4.60;1.40;;;;;;;13.23;100.00;96343.31;5030716;28;20651;-72
2024/04/06 02:52:13;;;;;;;6.37;2.23;;;;;;;13.02;100.00;96333.56;5028239;28;20461;-76
2024/04/06 02:54:39;;;;;;;3.30;1.43;;;;;;;12.96;100.00;96341.44;5032443;28;20208;-72
2024/04/06 02:57:05;;;;;;;1.33;1.20;;;;;;;12.95;100.00;96337.94;5026781;28;20205;-73
2024/04/06 02:59:32;;;;;;;2.23;1.30;;;;;;;12.71;100.00;96342.75;5032814;28;20224;-74
2024/04/06 03:01:57;;;;;;;2.40;1.60;;;;;;;12.46;100.00;96351.19;5035540;28;20205;-75
2024/04/06 03:04:24;;;;;;;2.00;1.57;;;;;;;12.56;100.00;96349.91;5031759;28;20496;-76
2024/04/06 03:06:51;;;;;;;2.50;1.60;;;;;;;12.63;100.00;96355.28;5031300;28;20208;-71
2024/04/06 03:09:18;;;;;;;1.53;1.40;;;;;;;12.38;100.00;96352.13;5030207;28;20221;-75
2024/04/06 03:11:45;;;;;;;2.03;1.50;;;;;;;12.43;100.00;96352.38;5029862;28;20860;-74
2024/04/06 03:14:11;;;;;;;2.00;1.70;;;;;;;12.51;100.00;96348.81;5028343;28;20978;-72
2024/04/06 03:16:37;;;;;;;3.50;1.50;;;;;;;12.46;100.00;96344.13;5032903;28;20193;-73
2024/04/06 03:19:03;;;;;;;2.23;1.50;;;;;;;12.57;100.00;96340.97;5026018;28;20222;-73
2024/04/06 03:21:29;;;;;;;3.53;1.40;;;;;;;12.42;100.00;96340.22;5028370;28;20268;-77
2024/04/06 03:23:57;;;;;;;2.07;1.43;;;;;;;12.54;100.00;96340.53;5030713;28;20205;-71
2024/04/06 03:26:23;;;;;;;4.63;1.70;;;;;;;12.14;100.00;96348.97;5029818;28;20202;-72
2024/04/06 03:28:50;;;;;;;3.43;2.03;;;;;;;12.16;100.00;96337.22;5029953;28;20224;-76
2024/04/06 03:31:16;;;;;;;2.37;1.47;;;;;;;12.26;100.00;96340.41;5024250;28;20221;-77
2024/04/06 03:33:42;;;;;;;3.83;1.83;;;;;;;12.33;100.00;96343.97;5025511;28;20264;-71
2024/04/06 03:36:08;;;;;;;1.93;1.30;;;;;;;12.43;100.00;96341.00;5027332;28;20202;-75
2024/04/06 03:38:35;;;;;;;2.17;1.77;;;;;;;12.38;100.00;96346.84;5027508;28;20225;-71
2024/04/06 03:41:02;;;;;;;3.53;1.63;;;;;;;12.45;100.00;96345.09;5033268;28;20225;-74
2024/04/06 03:43:28;;;;;;;5.40;1.87;;;;;;;12.37;100.00;96354.97;5026045;28;20204;-75
2024/04/06 03:45:54;;;;;;;2.43;1.80;;;;;;;12.51;100.00;96341.72;5028856;28;20214;-71
2024/04/06 03:48:21;;;;;;;2.20;1.63;;;;;;;12.56;100.00;96341.97;5025722;28;20204;-73
2024/04/06 03:50:46;;;;;;;2.43;1.77;;;;;;;12.58;100.00;96342.63;5023462;28;20276;-76
2024/04/06 03:53:15;;;;;;;5.70;1.57;;;;;;;12.60;100.00;96342.41;5031269;28;20648;-72
2024/04/06 03:55:41;;;;;;;2.60;1.70;;;;;;;12.54;100.00;96344.00;5030655;28;20205;-71
2024/04/06 03:58:08;;;;;;;3.67;1.90;;;;;;;12.74;100.00;96341.56;5026027;28;20226;-72
2024/04/06 04:00:35;;;;;;;2.20;1.60;;;;;;;12.65;100.00;96338.19;5026624;28;20336;-71
2024/04/06 04:03:01;;;;;;;2.57;1.70;;;;;;;12.60;100.00;96339.78;5028784;28;20555;-71
2024/04/06 04:05:27;;;;;;;2.47;1.83;;;;;;;12.66;100.00;96346.97;5029722;28;20207;-71
2024/04/06 04:07:53;;;;;;;2.70;1.57;;;;;;;12.64;100.00;96346.31;5025823;28;20208;-74
2024/04/06 04:10:20;;;;;;;5.20;1.60;;;;;;;12.64;100.00;96341.88;5022681;28;20224;-75
2024/04/06 04:12:45;;;;;;;3.40;2.03;;;;;;;12.73;100.00;96351.34;5024975;28;20239;-74
2024/04/06 04:15:13;;;;;;;2.17;1.67;;;;;;;12.79;100.00;96353.22;5024881;28;20209;-71
2024/04/06 04:17:39;;;;;;;3.93;2.00;;;;;;;12.57;100.00;96356.81;5022690;28;20212;-72
2024/04/06 04:20:08;;;;;;;2.40;1.97;;;;;;;12.56;100.00;96354.38;5025907;28;20228;-72
2024/04/06 04:22:34;;;;;;;3.17;1.80;;;;;;;12.59;100.00;96360.13;5026528;28;20208;-72
2024/04/06 04:25:00;;;;;;;2.53;1.80;;;;;;;12.51;100.00;96362.88;5026132;28;20202;-72
2024/04/06 04:27:26;;;;;;;3.03;1.53;;;;;;;12.50;100.00;96361.22;5028849;28;20201;-72
2024/04/06 04:29:53;;;;;;;7.57;1.90;;;;;;;12.42;100.00;96366.63;5028546;28;20217;-71
2024/04/06 04:32:19;;;;;;;5.43;1.90;;;;;;;12.53;100.00;96363.50;5030335;28;20207;-71
2024/04/06 04:34:46;;;;;;;2.93;1.87;;;;;;;12.22;100.00;96362.91;5029291;28;20323;-71
2024/04/06 04:37:11;;;;;;;2.70;1.70;;;;;;;12.20;100.00;96370.19;5027258;28;20644;-73
2024/04/06 04:39:38;;;;;;;3.73;1.97;;;;;;;12.29;100.00;96370.91;5024196;28;20217;-73
2024/04/06 04:42:04;;;;;;;3.00;1.93;;;;;;;12.40;100.00;96371.28;5028981;28;20209;-73
2024/04/06 04:44:31;;;;;;;3.60;1.80;;;;;;;12.26;100.00;96364.19;5025949;28;20212;-75
2024/04/06 04:46:56;;;;;;;2.33;1.83;;;;;;;12.16;100.00;96372.59;5026231;28;20201;-72
2024/04/06 04:49:25;;;;;;;2.97;1.73;;;;;;;12.32;100.00;96370.53;5025982;28;20480;-74
2024/04/06 04:51:50;;;;;;;2.27;1.87;;;;;;;12.09;100.00;96379.59;5026597;28;20197;-74
2024/04/06 04:54:17;;;;;;;3.17;1.77;;;;;;;12.06;100.00;96375.50;5026827;28;20212;-72
2024/04/06 04:56:43;;;;;;;2.10;1.73;;;;;;;12.07;100.00;96377.13;5025020;28;20586;-71
2024/04/06 04:59:10;;;;;;;3.07;2.17;;;;;;;12.12;100.00;96382.69;5025723;28;20224;-73
2024/04/06 05:01:35;;;;;;;4.77;2.00;;;;;;;12.04;100.00;96384.59;5027975;28;20205;-71
2024/04/06 05:04:02;;;;;;;3.33;1.93;;;;;;;12.05;100.00;96386.25;5029128;28;20204;-71
2024/04/06 05:06:29;;;;;;;2.33;1.90;;;;;;;12.20;100.00;96395.81;5028115;28;20231;-72
2024/04/06 05:08:57;;;;;;;2.87;2.27;;;;;;;12.05;100.00;96397.63;5030254;28;20205;-74
2024/04/06 05:11:23;;;;;;;3.97;2.40;;;;;;;12.03;100.00;96393.50;5029316;28;20774;-73
2024/04/06 05:13:50;;;;;;;2.87;2.10;;;;;;;12.11;100.00;96402.19;5034015;28;20307;-71
2024/04/06 05:16:15;;;;;;;4.47;2.47;;;;;;;12.19;100.00;96405.56;5034011;28;20589;-71
2024/04/06 05:18:42;;;;;;;3.27;2.13;;;;;;;12.20;100.00;96398.44;5033796;28;20229;-75
2024/04/06 05:21:07;;;;;;;4.93;2.27;;;;;;;12.09;100.00;96403.38;5037264;28;20236;-71
2024/04/06 05:23:35;;;;;;;5.57;2.47;;;;;;;12.24;100.00;96408.47;5033266;28;20579;-74
2024/04/06 05:26:01;;;;;;;4.23;2.30;;;;;;;12.27;100.00;96407.25;5033899;28;20201;-75
2024/04/06 05:28:28;;;;;;;3.43;2.30;;;;;;;12.44;100.00;96409.53;5033556;28;20212;-74
2024/04/06 05:30:54;;;;;;;4.43;2.10;;;;;;;12.39;100.00;96413.75;5031904;28;20225;-71
2024/04/06 05:33:21;;;;;;;2.77;2.13;;;;;;;12.52;100.00;96417.34;5035831;28;20211;-74
2024/04/06 05:35:48;;;;;;;5.07;2.40;;;;;;;12.64;100.00;96415.91;5030440;28;20221;-72
2024/04/06 05:38:15;;;;;;;3.30;2.37;;;;;;;12.59;100.00;96412.16;5032747;28;20871;-72
2024/04/06 05:40:43;;;;;;;3.27;2.27;;;;;;;12.74;100.00;96420.88;5033370;28;20225;-73
2024/04/06 05:43:10;;;;;;;3.47;2.30;;;;;;;12.76;100.00;96422.34;5035946;28;20214;-74
2024/04/06 05:45:37;;;;;;;3.40;2.03;;;;;;;12.86;100.00;96420.25;5035100;28;20205;-71
2024/04/06 05:48:04;;;;;;;6.80;2.50;;;;;;;12.82;100.00;96409.19;5037077;28;20824;-72
2024/04/06 05:50:30;;;;;;;5.57;2.20;;;;;;;12.95;100.00;96406.72;5033221;28;20217;-73
2024/04/06 05:52:56;;;;;;;7.60;3.23;;;;;;;12.97;100.00;96403.88;5035114;28;20202;-75
2024/04/06 05:55:22;;;;;;;6.17;2.50;;;;;;;13.02;100.00;96409.44;5035802;28;20222;-73
2024/04/06 05:57:51;;;;;;;7.07;2.60;;;;;;;13.27;100.00;96414.19;5037415;28;20284;-73
2024/04/06 06:00:17;;;;;;;3.83;2.13;;;;;;;13.34;100.00;96414.22;5037201;28;20220;-73
2024/04/06 06:02:43;;;;;;;4.37;2.30;;;;;;;13.57;100.00;96421.00;5037371;28;20328;-71
2024/04/06 06:05:09;;;;;;;3.23;2.10;;;;;;;13.66;100.00;96422.50;5039769;28;20201;-71
2024/04/06 06:07:36;;;;;;;4.13;2.13;;;;;;;13.89;100.00;96429.19;5039378;28;20198;-71
2024/04/06 06:10:02;;;;;;;3.53;2.30;;;;;;;14.00;100.00;96433.94;5039384;28;20225;-72
2024/04/06 06:12:29;;;;;;;3.33;2.30;;;;;;;14.07;100.00;96426.88;5047095;28;20713;-72
2024/04/06 06:14:56;;;;;;;3.57;2.10;;;;;;;14.36;100.00;96424.03;5055769;28;20208;-72
2024/04/06 06:17:22;;;;;;;2.60;1.70;;;;;;;14.37;100.00;96425.66;5040139;28;20207;-71
2024/04/06 06:19:48;;;;;;;2.63;1.80;;;;;;;14.45;100.00;96433.47;5046827;28;20714;-72
2024/04/06 06:22:14;;;;;;;2.37;1.67;;;;;;;14.59;100.00;96430.69;5045378;28;20205;-72
2024/04/06 06:24:42;;;;;;;2.07;1.43;;;;;;;14.69;100.00;96433.81;5045550;28;20200;-72
2024/04/06 06:27:08;;;;;;;2.03;1.30;;;;;;;14.88;100.00;96436.53;5052833;28;20201;-72
2024/04/06 06:29:34;;;;;;;2.65;1.23;;;;;;;15.00;100.00;96434.94;5052920;28;20224;-73
2024/04/06 06:32:02;;;;;;;2.00;1.30;;;;;;;15.31;100.00;96433.44;5052409;28;20209;-72
2024/04/06 06:34:28;;;;;;;4.43;1.73;;;;;;;15.18;100.00;96437.03;5049312;28;20204;-74
2024/04/06 06:36:55;;;;;;;3.63;1.30;;;;;;;15.26;100.00;96445.66;5052740;28;20216;-73
2024/04/06 06:39:21;;;;;;;2.03;1.35;;;;;;;15.30;100.00;96438.94;5062758;28;20222;-73
2024/04/06 06:41:47;;;;;;;4.80;2.00;;;;;;;15.38;100.00;96446.72;5048048;28;20208;-73
2024/04/06 06:44:13;;;;;;;9.07;1.73;;;;;;;15.46;100.00;96452.63;5051424;28;20204;-72
2024/04/06 06:46:40;;;;;;;2.03;1.40;;;;;;;15.68;100.00;96445.31;5051755;28;20215;-72
2024/04/06 06:49:06;;;;;;;7.18;1.50;;;;;;;16.07;100.00;96438.97;5046477;28;20202;-72
2024/04/06 06:51:33;;;;;;;1.55;1.20;;;;;;;16.04;100.00;96442.06;5058983;28;20380;-72
2024/04/06 06:53:58;;;;;;;4.93;1.73;;;;;;;16.25;100.00;96441.03;5051911;28;20205;-74
2024/04/06 06:56:25;;;;;;;1.02;0.93;;;;;;;16.31;100.00;96443.69;5037778;28;20203;-72
2024/04/06 06:58:50;;;;;;;3.47;1.45;;;;;;;16.45;100.00;96445.31;5055191;28;20240;-73
2024/04/06 07:01:17;;;;;;;3.05;1.90;;;;;;;16.58;100.00;96443.44;5041429;28;20592;-72
2024/04/06 07:03:43;;;;;;;2.10;1.42;;;;;;;16.66;100.00;96450.38;5053110;28;20556;-72
2024/04/06 07:06:12;;;;;;;2.10;1.10;;;;;;;16.93;100.00;96441.25;5057560;28;20212;-74
2024/04/06 07:08:38;;;;;;;1.52;1.33;;;;;;;16.99;100.00;96433.25;5047449;28;20233;-73
2024/04/06 07:11:05;;;;;;;1.83;1.10;;;;;;;16.81;100.00;96438.44;5049915;28;20347;-73
2024/04/06 07:13:30;;;;;;;1.38;1.05;;;;;;;17.04;100.00;96429.97;5052285;28;20564;-72
2024/04/06 07:16:04;;;;;;;3.75;1.40;;;;;;;17.34;98.30;96432.69;5057650;28;20250;-72
2024/04/06 07:18:29;;;;;;;4.15;1.75;;;;;;;17.06;97.46;96433.25;5048534;28;20601;-73
2024/04/06 07:20:56;;;;;;;1.50;0.90;;;;;;;16.87;98.04;96429.63;5039666;28;20232;-74
2024/04/06 07:23:23;;;;;;;1.67;1.25;;;;;;;17.31;97.91;96422.50;5042094;28;20201;-74
2024/04/06 07:25:49;;;;;;;1.60;1.13;;;;;;;17.29;97.35;96421.06;5047272;28;20193;-73
2024/04/06 07:28:15;;;;;;;1.98;1.02;;;;;;;17.64;95.07;96423.06;5048490;28;20212;-72
2024/04/06 07:30:42;;;;;;;3.13;0.90;;;;;;;17.56;96.50;96426.00;5062456;28;20307;-72
2024/04/06 07:33:07;;;;;;;1.73;0.90;;;;;;;17.63;95.46;96424.13;5055091;28;20201;-73
2024/04/06 07:35:34;;;;;;;1.33;0.93;;;;;;;17.68;95.58;96440.28;5056442;28;20193;-72
2024/04/06 07:37:59;;;;;;;3.38;0.98;;;;;;;17.74;94.65;96434.06;5042958;28;20205;-74
2024/04/06 07:40:27;;;;;;;1.92;1.00;;;;;;;18.10;93.31;96436.88;5039641;28;20224;-72
2024/04/06 07:42:53;;;;;;;3.67;1.20;;;;;;;18.14;97.70;96438.91;5051763;28;20643;-72
2024/04/06 07:45:20;;;;;;;3.28;1.23;;;;;;;18.28;96.93;96442.28;5044336;28;20240;-72
2024/04/06 07:47:45;;;;;;;1.65;0.95;;;;;;;18.41;95.08;96445.66;5040715;28;20252;-73
2024/04/06 07:50:12;;;;;;;1.30;1.00;;;;;;;18.66;94.29;96447.25;5047223;28;20225;-72
2024/04/06 07:52:37;;;;;;;1.50;1.13;;;;;;;18.64;94.81;96446.63;5050652;28;20208;-74
2024/04/06 07:55:05;;;;;;;4.75;0.93;;;;;;;18.75;92.15;96455.75;5042270;28;20292;-72
2024/04/06 07:57:32;;;;;;;4.95;1.08;;;;;;;18.68;92.47;96455.84;5039078;28;20213;-73
2024/04/06 08:00:01;;;;;;;1.00;0.80;;;;;;;18.93;89.31;96456.59;5040916;28;20229;-72
2024/04/06 08:02:27;;;;;;;3.90;0.80;;;;;;;19.32;90.07;96459.66;5050692;28;20666;-72
2024/04/06 08:04:56;;;;;;;0.68;0.68;;;;;;;19.04;87.62;96456.66;5046188;28;20200;-72
2024/04/06 08:07:21;;;;;;;1.95;0.90;;;;;;;19.41;86.45;96455.63;5045830;28;20206;-72
2024/04/06 08:09:48;;;;;;;0.65;0.65;;;;;;;19.54;84.37;96451.91;5044889;28;20305;-72
2024/04/06 08:12:13;;;;;;;1.65;0.98;;;;;;;19.74;84.50;96458.63;5045278;28;20202;-73
2024/04/06 08:14:41;;;;;;;0.90;0.77;;;;;;;20.05;84.36;96455.69;5044607;28;20208;-72
2024/04/06 08:17:07;;;;;;;2.92;0.98;;;;;;;19.94;82.40;96470.69;5047393;28;20197;-73
2024/04/06 08:19:33;;;;;;;1.55;0.98;;;;;;;19.87;85.24;96474.47;5040958;28;20256;-72
2024/04/06 08:22:01;;;;;;;1.13;0.80;;;;;;;19.87;81.54;96467.28;5040593;28;20206;-73
2024/04/06 08:24:28;;;;;;;3.25;0.98;;;;;;;20.00;81.03;96468.97;5039823;28;20197;-72
2024/04/06 08:26:55;;;;;;;1.73;1.02;;;;;;;19.99;81.38;96462.78;5040042;28;20580;-72
2024/04/06 08:29:22;;;;;;;3.17;0.85;;;;;;;20.32;80.62;96461.22;5040702;28;20307;-72
2024/04/06 08:31:49;;;;;;;1.30;1.20;;;;;;;20.34;80.17;96467.16;5038932;28;20213;-72
2024/04/06 08:34:15;;;;;;;4.13;1.52;;;;;;;20.20;79.56;96475.66;5043460;28;20197;-72
2024/04/06 08:36:41;;;;;;;0.80;0.70;;;;;;;20.03;80.34;96463.97;5039602;28;20205;-72
2024/04/06 08:39:08;;;;;;;1.40;0.88;;;;;;;20.17;80.08;96468.06;5039782;28;20597;-75
2024/04/06 08:41:33;;;;;;;2.45;0.80;;;;;;;20.08;79.27;96476.66;5036839;28;20205;-72
2024/04/06 08:44:01;;;;;;;1.75;1.08;;;;;;;20.03;78.57;96474.66;5035692;28;20694;-76
2024/04/06 08:46:27;;;;;;;1.80;0.70;;;;;;;20.14;79.63;96471.22;5035788;28;20212;-72
2024/04/06 08:48:54;;;;;;;2.00;0.90;;;;;;;20.34;77.75;96477.03;5041583;28;20197;-73
2024/04/06 08:51:20;;;;;;;0.73;0.73;;;;;;;20.08;80.02;96479.34;5035310;28;20437;-73
2024/04/06 08:53:47;;;;;;;3.80;0.88;;;;;;;20.30;79.09;96482.06;5039441;28;20882;-75
2024/04/06 08:56:15;;;;;;;1.75;1.05;;;;;;;20.82;79.13;96472.31;5040044;28;20208;-72
2024/04/06 08:58:42;;;;;;;1.50;0.95;;;;;;;20.68;76.17;96468.22;5038108;28;20202;-72
2024/04/06 09:01:07;;;;;;;1.77;1.08;;;;;;;20.73;76.71;96471.03;5032675;28;20225;-73
2024/04/06 09:03:34;;;;;;;4.25;1.27;;;;;;;21.24;76.58;96467.34;5039124;28;20215;-72
2024/04/06 09:06:01;;;;;;;2.47;1.02;;;;;;;21.33;73.35;96457.88;5036220;28;20201;-72
2024/04/06 09:08:27;;;;;;;1.15;1.02;;;;;;;21.44;72.04;96463.19;5036928;28;20212;-72
2024/04/06 09:10:57;;;;;;;0.80;0.80;;;;;;;21.41;70.49;96456.69;5035081;28;20903;-72
2024/04/06 09:13:24;;;;;;;0.85;0.73;;;;;;;21.83;69.37;96456.19;5038525;28;20229;-72
2024/04/06 09:15:51;;;;;;;1.33;1.00;;;;;;;21.80;68.21;96454.78;5039373;28;20220;-72
2024/04/06 09:18:17;;;;;;;0.65;0.60;;;;;;;22.01;67.20;96445.22;5037119;28;20208;-73
2024/04/06 09:20:50;;;;;;;1.65;0.90;;;;;;;22.17;67.02;96443.41;5036984;28;20721;-72
2024/04/06 09:23:18;;;;;;;1.27;0.88;;;;;;;22.02;65.35;96446.88;5034497;28;20210;-73
2024/04/06 09:25:45;;;;;;;4.15;1.05;;;;;;;21.66;66.09;96441.94;5033496;28;20202;-72
2024/04/06 09:28:12;;;;;;;1.85;0.95;;;;;;;21.93;65.51;96446.47;5035369;28;20667;-74
2024/04/06 09:30:42;;;;;;;1.00;0.85;;;;;;;22.21;65.56;96444.53;5039007;28;20224;-73
2024/04/06 09:33:08;;;;;;;0.63;0.60;;;;;;;22.15;65.23;96448.19;5037519;28;20206;-75
2024/04/06 09:35:39;;;;;;;2.85;1.23;;;;;;;22.29;65.82;96444.16;5037588;28;20624;-72
2024/04/06 09:38:08;;;;;;;5.25;0.93;;;;;;;22.11;65.89;96441.69;5034352;28;20223;-71
2024/04/06 09:40:36;;;;;;;2.88;0.90;;;;;;;22.55;65.25;96440.00;5036141;28;20217;-72
2024/04/06 09:43:03;;;;;;;1.95;0.70;;;;;;;22.48;64.77;96431.28;5036800;28;20293;-73
2024/04/06 09:45:32;;;;;;;1.15;0.73;;;;;;;22.29;66.08;96430.72;5028882;28;20202;-72
2024/04/06 09:48:00;;;;;;;2.17;1.00;;;;;;;22.38;67.81;96426.56;5029543;28;20420;-76
2024/04/06 09:50:27;;;;;;;1.33;0.90;;;;;;;22.25;66.06;96421.50;5032961;28;20777;-72
2024/04/06 09:52:52;;;;;;;1.27;0.82;;;;;;;22.17;67.35;96423.78;5037489;28;20205;-72
2024/04/06 09:55:19;;;;;;;1.90;1.08;;;;;;;22.47;65.62;96429.66;5037574;28;20206;-72
2024/04/06 09:57:46;;;;;;;2.58;0.73;;;;;;;23.07;65.19;96424.09;5040944;28;20208;-72
2024/04/06 10:00:13;;;;;;;6.63;1.52;;;;;;;23.16;65.38;96409.16;5044695;28;20766;-72
2024/04/06 10:02:39;;;;;;;1.98;0.90;;;;;;;23.28;63.87;96406.34;5037911;28;20202;-75
2024/04/06 10:05:06;;;;;;;2.30;1.17;;;;;;;23.23;63.30;96400.91;5030152;28;20217;-74
2024/04/06 10:07:33;;;;;;;1.83;1.10;;;;;;;23.35;62.78;96403.19;5028233;28;20686;-73
2024/04/06 10:10:01;;;;;;;1.90;0.80;;;;;;;23.51;63.62;96391.56;5029487;28;20338;-74
2024/04/06 10:12:36;;;;;;;1.75;0.70;;;;;;;23.48;62.70;96397.41;5030921;28;20456;-72
2024/04/06 10:15:07;;;;;;;1.95;0.98;;;;;;;23.63;63.00;96400.28;5026268;28;20215;-72
2024/04/06 10:17:41;;;;;;;2.72;1.05;;;;;;;23.67;62.22;96401.38;5024814;28;20667;-73
2024/04/06 10:20:09;;;;;;;1.20;0.98;;;;;;;23.40;63.04;96400.56;5029421;28;20232;-75
2024/04/06 10:22:50;;;;;;;1.42;1.00;;;;;;;23.72;62.34;96403.38;5029890;28;20201;-73
2024/04/06 10:25:17;;;;;;;1.92;1.15;;;;;;;23.89;63.91;96395.97;5029209;28;20215;-75
2024/04/06 10:27:43;;;;;;;1.73;1.20;;;;;;;23.94;61.73;96402.22;5028548;28;20202;-73
2024/04/06 10:30:11;;;;;;;1.20;0.90;;;;;;;24.20;62.00;96399.50;5031072;28;20597;-74
2024/04/06 10:32:37;;;;;;;1.13;0.90;;;;;;;24.34;60.76;96402.56;5030791;28;20203;-73
2024/04/06 10:35:04;;;;;;;2.08;1.05;;;;;;;24.51;59.61;96397.88;5036768;28;20297;-75
2024/04/06 10:37:30;;;;;;;1.73;1.02;;;;;;;24.64;57.86;96396.34;5033610;28;20215;-75
2024/04/06 10:39:57;;;;;;;1.95;1.00;;;;;;;24.77;58.97;96392.34;5028750;28;20233;-74
2024/04/06 10:42:25;;;;;;;2.38;0.77;;;;;;;25.02;58.35;96389.81;5029977;28;20208;-75
2024/04/06 10:44:52;;;;;;;2.28;0.82;;;;;;;25.35;57.14;96382.16;5028889;28;20201;-73
2024/04/06 10:47:19;;;;;;;1.50;1.02;;;;;;;25.35;56.18;96388.34;5027006;28;20690;-73
2024/04/06 10:49:46;;;;;;;1.77;0.90;;;;;;;25.24;56.44;96383.19;5027020;28;20217;-72
2024/04/06 10:52:12;;;;;;;1.52;0.90;;;;;;;25.17;56.48;96376.44;5029997;28;20702;-72
2024/04/06 10:54:39;;;;;;;1.23;0.88;;;;;;;25.28;55.34;96378.91;5028223;28;20216;-73
2024/04/06 10:57:05;;;;;;;2.80;1.20;;;;;;;25.43;55.23;96378.94;5028144;28;20213;-76
2024/04/06 10:59:32;;;;;;;2.78;1.30;;;;;;;25.60;54.17;96382.19;5031392;28;20224;-72
2024/04/06 11:01:57;;;;;;;3.75;0.88;;;;;;;25.82;53.81;96381.75;5027129;28;20212;-72
2024/04/06 11:04:25;;;;;;;1.50;0.52;;;;;;;25.81;51.85;96379.31;5031354;28;20202;-73
2024/04/06 11:06:51;;;;;;;3.28;0.65;;;;;;;25.90;51.24;96372.31;5029690;28;20320;-76
2024/04/06 11:09:18;;;;;;;1.80;0.80;;;;;;;26.34;52.67;96379.63;5026172;28;20278;-75
2024/04/06 11:11:44;;;;;;;2.50;0.93;;;;;;;26.11;52.66;96369.34;5027477;28;20205;-75
2024/04/06 11:14:11;;;;;;;0.63;0.55;;;;;;;26.12;51.83;96370.16;5021724;28;20202;-74
2024/04/06 11:16:37;;;;;;;1.50;0.80;;;;;;;26.15;51.44;96370.44;5025367;28;20205;-72
2024/04/06 11:19:04;;;;;;;1.05;0.95;;;;;;;26.50;51.23;96365.00;5023545;28;20202;-76
2024/04/06 11:21:31;;;;;;;0.63;0.57;;;;;;;26.15;50.37;96372.31;5022487;28;20198;-77
2024/04/06 11:23:58;;;;;;;2.33;0.77;;;;;;;26.35;51.41;96359.66;5021956;28;20206;-73
2024/04/06 11:26:26;;;;;;;0.93;0.65;;;;;;;26.59;49.82;96358.78;5024815;28;20205;-76